createdAt,value
2018-03-17T00:01:36.766Z,17.87
2018-03-17T00:04:04.243Z,21.75
2018-03-17T00:06:31.726Z,17.77
2018-03-17T00:08:59.173Z,19.00
2018-03-17T00:11:26.661Z,19.02
2018-03-17T00:13:54.133Z,16.90
2018-03-17T00:16:21.584Z,16.80
2018-03-17T00:18:49.693Z,16.60
2018-03-17T00:21:17.939Z,16.52
2018-03-17T00:23:45.397Z,20.48
2018-03-17T00:26:13.492Z,18.55
2018-03-17T00:28:41.760Z,15.20
2018-03-17T00:31:09.214Z,18.55
2018-03-17T00:33:37.479Z,16.70
2018-03-17T00:36:04.933Z,18.08
2018-03-17T00:38:32.396Z,17.10
2018-03-17T00:41:00.637Z,17.10
2018-03-17T00:43:28.116Z,18.20
2018-03-17T00:45:55.661Z,16.27
2018-03-17T00:48:23.128Z,16.83
2018-03-17T00:50:50.589Z,17.10
2018-03-17T00:53:18.045Z,18.27
2018-03-17T00:55:45.528Z,16.87
2018-03-17T00:58:12.960Z,20.50
2018-03-17T01:00:40.439Z,16.77
2018-03-17T01:03:08.665Z,17.52
2018-03-17T01:05:36.206Z,17.83
2018-03-17T01:08:03.682Z,18.37
2018-03-17T01:10:31.174Z,18.15
2018-03-17T01:12:58.625Z,17.05
2018-03-17T01:15:26.097Z,19.08
2018-03-17T01:17:53.619Z,21.87
2018-03-17T01:20:21.502Z,17.67
2018-03-17T01:22:48.968Z,15.48
2018-03-17T01:25:17.217Z,16.55
2018-03-17T01:27:44.714Z,17.02
2018-03-17T01:30:12.951Z,18.77
2018-03-17T01:32:40.442Z,19.50
2018-03-17T01:35:07.905Z,17.92
2018-03-17T01:37:38.805Z,17.10
2018-03-17T01:40:06.263Z,20.77
2018-03-17T01:42:34.488Z,20.25
2018-03-17T01:45:01.953Z,17.92
2018-03-17T01:47:29.461Z,17.62
2018-03-17T01:49:56.957Z,18.52
2018-03-17T01:52:24.426Z,19.42
2018-03-17T01:54:51.932Z,17.33
2018-03-17T01:57:20.188Z,20.55
2018-03-17T01:59:47.662Z,18.15
2018-03-17T02:02:15.950Z,17.70
2018-03-17T02:04:44.217Z,19.25
2018-03-17T02:07:12.645Z,19.92
2018-03-17T02:09:40.118Z,16.30
2018-03-17T02:12:07.593Z,20.65
2018-03-17T02:14:35.062Z,17.77
2018-03-17T02:17:07.042Z,18.30
2018-03-17T02:19:34.569Z,19.17
2018-03-17T02:22:02.026Z,17.62
2018-03-17T02:24:29.515Z,22.00
2018-03-17T02:26:56.974Z,17.80
2018-03-17T02:29:24.440Z,18.55
2018-03-17T02:31:51.886Z,18.80
2018-03-17T02:34:19.361Z,20.08
2018-03-17T02:36:46.815Z,22.83
2018-03-17T02:39:14.309Z,22.92
2018-03-17T02:41:41.789Z,21.40
2018-03-17T02:44:09.276Z,18.77
2018-03-17T02:46:36.756Z,21.73
2018-03-17T02:49:04.261Z,23.50
2018-03-17T02:51:31.710Z,19.73
2018-03-17T02:53:59.164Z,21.95
2018-03-17T02:56:27.367Z,24.48
2018-03-17T02:58:54.840Z,18.35
2018-03-17T03:01:22.287Z,22.62
2018-03-17T03:03:49.808Z,23.73
2018-03-17T03:06:18.051Z,19.02
2018-03-17T03:08:45.496Z,22.17
2018-03-17T03:11:12.974Z,24.48
2018-03-17T03:13:40.514Z,24.98
2018-03-17T03:16:08.016Z,23.08
2018-03-17T03:18:35.474Z,22.20
2018-03-17T03:21:02.966Z,24.20
2018-03-17T03:23:30.418Z,24.90
2018-03-17T03:25:57.900Z,23.45
2018-03-17T03:28:25.447Z,22.77
2018-03-17T03:30:52.929Z,24.95
2018-03-17T03:33:20.407Z,27.08
2018-03-17T03:35:47.845Z,26.60
2018-03-17T03:38:15.309Z,26.60
2018-03-17T03:40:42.832Z,24.27
2018-03-17T03:43:10.309Z,22.95
2018-03-17T03:45:37.768Z,28.55
2018-03-17T03:48:05.458Z,21.33
2018-03-17T03:50:32.912Z,26.50
2018-03-17T03:53:00.387Z,21.65
2018-03-17T03:55:27.885Z,23.55
2018-03-17T03:57:55.408Z,25.88
2018-03-17T04:00:22.865Z,23.67
2018-03-17T04:02:50.373Z,20.75
2018-03-17T04:05:17.808Z,24.30
2018-03-17T04:07:45.289Z,21.80
2018-03-17T04:10:12.736Z,23.10
2018-03-17T04:12:40.205Z,25.10
2018-03-17T04:15:07.744Z,19.92
2018-03-17T04:17:35.216Z,24.65
2018-03-17T04:20:02.665Z,23.00
2018-03-17T04:22:30.119Z,23.60
2018-03-17T04:24:57.568Z,26.65
2018-03-17T04:27:25.039Z,21.50
2018-03-17T04:29:52.499Z,20.77
2018-03-17T04:32:20.017Z,21.20
2018-03-17T04:34:47.514Z,22.77
2018-03-17T04:37:14.964Z,26.98
2018-03-17T04:39:42.435Z,22.85
2018-03-17T04:42:10.788Z,24.87
2018-03-17T04:44:38.258Z,20.15
2018-03-17T04:47:05.735Z,23.87
2018-03-17T04:49:33.991Z,23.12
2018-03-17T04:52:01.466Z,23.87
2018-03-17T04:54:28.925Z,23.70
2018-03-17T04:56:57.145Z,21.17
2018-03-17T04:59:24.633Z,21.70
2018-03-17T05:01:52.140Z,24.80
2018-03-17T05:04:19.664Z,23.40
2018-03-17T05:06:47.872Z,23.80
2018-03-17T05:09:15.349Z,19.85
2018-03-17T05:11:42.783Z,23.00
2018-03-17T05:14:10.266Z,21.95
2018-03-17T05:16:38.613Z,23.42
2018-03-17T05:19:06.076Z,20.52
2018-03-17T05:21:33.590Z,22.05
2018-03-17T05:24:01.039Z,22.62
2018-03-17T05:26:29.342Z,21.05
2018-03-17T05:28:56.788Z,24.70
2018-03-17T05:31:24.394Z,24.10
2018-03-17T05:33:51.912Z,22.67
2018-03-17T05:36:19.371Z,20.62
2018-03-17T05:38:46.835Z,20.05
2018-03-17T05:41:14.338Z,20.52
2018-03-17T05:43:41.804Z,21.90
2018-03-17T05:46:09.299Z,24.50
2018-03-17T05:48:36.784Z,17.92
2018-03-17T05:51:04.250Z,20.50
2018-03-17T05:53:31.730Z,22.67
2018-03-17T05:55:59.287Z,22.65
2018-03-17T05:58:26.746Z,20.10
2018-03-17T06:00:54.189Z,20.80
2018-03-17T06:03:21.701Z,20.67
2018-03-17T06:05:49.198Z,24.83
2018-03-17T06:08:16.734Z,21.65
2018-03-17T06:10:44.121Z,17.33
2018-03-17T06:13:11.661Z,20.42
2018-03-17T06:15:39.128Z,19.20
2018-03-17T06:18:06.595Z,19.42
2018-03-17T06:20:34.061Z,19.15
2018-03-17T06:23:01.525Z,17.92
2018-03-17T06:25:28.982Z,21.98
2018-03-17T06:27:56.440Z,16.62
2018-03-17T06:30:23.912Z,19.00
2018-03-17T06:32:51.420Z,19.62
2018-03-17T06:35:18.878Z,19.30
2018-03-17T06:37:46.390Z,17.10
2018-03-17T06:40:13.837Z,16.75
2018-03-17T06:42:42.064Z,16.73
2018-03-17T06:45:09.606Z,16.77
2018-03-17T06:47:37.071Z,19.02
2018-03-17T06:50:04.530Z,16.80
2018-03-17T06:52:31.964Z,14.95
2018-03-17T06:54:59.448Z,18.23
2018-03-17T06:57:26.988Z,18.62
2018-03-17T06:59:54.473Z,19.42
2018-03-17T07:02:21.930Z,19.87
2018-03-17T07:04:50.247Z,18.83
2018-03-17T07:07:17.726Z,17.10
2018-03-17T07:09:45.236Z,17.30
2018-03-17T07:12:12.690Z,18.42
2018-03-17T07:14:40.945Z,20.98
2018-03-17T07:17:08.414Z,18.42
2018-03-17T07:19:36.657Z,17.60
2018-03-17T07:22:04.159Z,15.60
2018-03-17T07:24:32.423Z,18.70
2018-03-17T07:26:59.863Z,16.15
2018-03-17T07:29:27.370Z,17.40
2018-03-17T07:31:54.849Z,17.90
2018-03-17T07:34:22.313Z,17.23
2018-03-17T07:36:49.819Z,15.90
2018-03-17T07:39:18.043Z,16.90
2018-03-17T07:41:45.630Z,17.73
2018-03-17T07:44:13.123Z,15.52
2018-03-17T07:46:40.613Z,15.25
2018-03-17T07:49:09.582Z,16.27
2018-03-17T07:51:37.013Z,13.65
2018-03-17T07:54:05.188Z,16.50
2018-03-17T07:56:33.406Z,18.08
2018-03-17T07:59:01.518Z,15.70
2018-03-17T08:01:28.973Z,13.62
2018-03-17T08:03:56.682Z,16.23
2018-03-17T08:06:24.132Z,16.15
2018-03-17T08:08:51.614Z,13.93
2018-03-17T08:11:19.094Z,14.07
2018-03-17T08:13:46.676Z,13.75
2018-03-17T08:16:15.110Z,13.52
2018-03-17T08:18:42.580Z,16.50
2018-03-17T08:21:10.089Z,13.88
2018-03-17T08:23:37.561Z,13.13
2018-03-17T08:26:05.001Z,15.77
2018-03-17T08:31:07.025Z,15.30
2018-03-17T08:33:35.239Z,13.38
2018-03-17T08:36:03.484Z,14.13
2018-03-17T08:38:30.928Z,14.05
2018-03-17T08:40:58.394Z,15.38
2018-03-17T08:43:25.853Z,20.10
2018-03-17T08:45:53.349Z,14.27
2018-03-17T08:48:21.575Z,13.85
2018-03-17T08:50:49.890Z,15.77
2018-03-17T08:53:17.500Z,10.93
2018-03-17T08:55:45.005Z,13.73
2018-03-17T08:58:13.611Z,12.32
2018-03-17T09:00:41.069Z,15.00
2018-03-17T09:03:08.534Z,12.88
2018-03-17T09:05:36.174Z,13.35
2018-03-17T09:08:03.629Z,12.73
2018-03-17T09:10:32.133Z,12.55
2018-03-17T09:12:59.751Z,11.98
2018-03-17T09:15:27.265Z,15.02
2018-03-17T09:17:54.862Z,11.60
2018-03-17T09:20:22.332Z,12.37
2018-03-17T09:22:49.886Z,13.20
2018-03-17T09:25:18.132Z,11.52
2018-03-17T09:27:49.605Z,15.18
2018-03-17T09:30:21.202Z,11.55
2018-03-17T09:33:01.407Z,12.30
2018-03-17T09:35:29.756Z,12.88
2018-03-17T09:37:57.219Z,9.45
2018-03-17T09:40:24.657Z,13.85
2018-03-17T09:42:52.135Z,14.57
2018-03-17T09:45:19.844Z,14.20
2018-03-17T09:47:47.437Z,10.70
2018-03-17T09:50:15.698Z,11.10
2018-03-17T09:52:51.151Z,17.45
2018-03-17T09:57:53.349Z,11.52
2018-03-17T10:00:20.789Z,11.27
2018-03-17T10:02:51.601Z,12.88
2018-03-17T10:05:23.675Z,11.45
2018-03-17T10:07:52.344Z,10.48
2018-03-17T10:10:20.454Z,11.00
2018-03-17T10:12:48.343Z,10.70
2018-03-17T10:15:21.320Z,11.88
2018-03-17T10:18:01.348Z,10.25
2018-03-17T10:20:29.159Z,11.12
2018-03-17T10:22:57.666Z,12.15
2018-03-17T10:25:25.456Z,11.88
2018-03-17T10:27:53.232Z,12.48
2018-03-17T10:30:20.866Z,12.13
2018-03-17T10:32:55.453Z,12.23
2018-03-17T10:35:31.338Z,12.52
2018-03-17T10:37:59.017Z,15.55
2018-03-17T10:40:26.576Z,12.25
2018-03-17T10:43:08.254Z,10.68
2018-03-17T10:45:36.661Z,10.95
2018-03-17T10:48:09.926Z,11.50
2018-03-17T10:50:40.922Z,11.32
2018-03-17T10:53:09.182Z,9.45
2018-03-17T10:55:39.149Z,10.30
2018-03-17T10:58:06.685Z,9.85
2018-03-17T11:00:34.974Z,9.90
2018-03-17T11:03:02.561Z,10.57
2018-03-17T11:05:30.924Z,9.55
2018-03-17T11:07:58.443Z,11.07
2018-03-17T11:10:25.937Z,15.18
2018-03-17T11:12:53.412Z,11.40
2018-03-17T11:15:20.877Z,10.13
2018-03-17T11:17:49.144Z,9.93
2018-03-17T11:20:16.588Z,10.20
2018-03-17T11:22:44.070Z,9.18
2018-03-17T11:25:23.864Z,11.30
2018-03-17T11:29:36.723Z,9.80
2018-03-17T11:32:04.197Z,10.15
2018-03-17T11:34:31.897Z,15.05
2018-03-17T11:36:59.900Z,11.30
2018-03-17T11:39:27.459Z,14.05
2018-03-17T11:41:54.898Z,12.10
2018-03-17T11:44:22.387Z,10.65
2018-03-17T11:46:49.845Z,9.45
2018-03-17T11:49:17.307Z,16.23
2018-03-17T11:51:44.843Z,9.05
2018-03-17T11:54:12.312Z,11.73
2018-03-17T11:56:39.762Z,11.95
2018-03-17T11:59:07.266Z,10.40
2018-03-17T12:01:34.733Z,14.50
2018-03-17T12:04:02.217Z,11.18
2018-03-17T12:06:29.644Z,8.60
2018-03-17T12:08:57.122Z,9.95
2018-03-17T12:11:24.559Z,11.15
2018-03-17T12:13:51.997Z,10.88
2018-03-17T12:16:19.501Z,11.23
2018-03-17T12:18:46.968Z,11.55
2018-03-17T12:21:14.454Z,10.80
2018-03-17T12:23:41.920Z,12.63
2018-03-17T12:26:09.491Z,14.70
2018-03-17T12:28:37.978Z,12.00
2018-03-17T12:31:05.457Z,10.43
2018-03-17T12:33:32.917Z,9.38
2018-03-17T12:36:00.372Z,9.00
2018-03-17T12:38:27.878Z,17.80
2018-03-17T12:40:55.315Z,10.20
2018-03-17T12:43:22.772Z,15.45
2018-03-17T12:45:50.252Z,9.60
2018-03-17T12:48:19.780Z,9.52
2018-03-17T12:50:47.234Z,10.68
2018-03-17T12:53:14.700Z,11.32
2018-03-17T12:55:42.140Z,9.60
2018-03-17T12:58:09.601Z,10.00
2018-03-17T13:00:37.169Z,11.60
2018-03-17T13:03:04.627Z,14.13
2018-03-17T13:05:32.128Z,10.85
2018-03-17T13:07:59.626Z,10.20
2018-03-17T13:10:27.190Z,11.70
2018-03-17T13:12:54.657Z,11.07
2018-03-17T13:15:22.138Z,13.65
2018-03-17T13:17:49.597Z,15.52
2018-03-17T13:20:17.040Z,8.95
2018-03-17T13:22:56.391Z,12.57
2018-03-17T13:25:23.841Z,10.02
2018-03-17T13:28:03.163Z,11.98
2018-03-17T13:30:30.631Z,12.73
2018-03-17T13:32:58.108Z,10.00
2018-03-17T13:35:37.967Z,13.48
2018-03-17T13:38:05.388Z,10.63
2018-03-17T13:40:43.510Z,11.55
2018-03-17T13:43:10.971Z,11.65
2018-03-17T13:45:38.474Z,11.12
2018-03-17T13:48:06.681Z,9.90
2018-03-17T13:50:34.174Z,11.30
2018-03-17T13:53:01.622Z,11.10
2018-03-17T13:55:29.106Z,12.57
2018-03-17T13:57:57.333Z,11.57
2018-03-17T14:00:24.824Z,10.02
2018-03-17T14:02:52.359Z,8.60
2018-03-17T14:05:19.882Z,11.90
2018-03-17T14:07:47.349Z,10.90
2018-03-17T14:10:14.808Z,11.82
2018-03-17T14:12:42.268Z,10.40
2018-03-17T14:15:09.912Z,11.00
2018-03-17T14:17:37.350Z,11.10
2018-03-17T14:20:04.784Z,11.95
2018-03-17T14:22:33.021Z,11.63
2018-03-17T14:25:00.600Z,11.02
2018-03-17T14:27:28.064Z,10.50
2018-03-17T14:29:55.529Z,10.25
2018-03-17T14:32:23.061Z,9.63
2018-03-17T14:34:50.611Z,9.85
2018-03-17T14:37:18.124Z,10.27
2018-03-17T14:39:45.604Z,12.95
2018-03-17T14:42:13.090Z,11.65
2018-03-17T14:44:40.656Z,11.23
2018-03-17T14:47:08.104Z,10.65
2018-03-17T14:49:35.586Z,10.18
2018-03-17T14:52:03.042Z,11.68
2018-03-17T14:54:30.493Z,10.88
2018-03-17T14:56:57.966Z,10.05
2018-03-17T14:59:25.865Z,11.27
2018-03-17T15:01:54.075Z,9.40
2018-03-17T15:04:21.516Z,11.40
2018-03-17T15:06:49.103Z,10.32
2018-03-17T15:09:16.554Z,11.02
2018-03-17T15:11:44.022Z,11.30
2018-03-17T15:14:12.398Z,10.98
2018-03-17T15:16:39.832Z,17.42
2018-03-17T15:19:07.387Z,11.35
2018-03-17T15:21:34.892Z,10.23
2018-03-17T15:24:03.253Z,11.55
2018-03-17T15:26:31.535Z,13.20
2018-03-17T15:28:59.020Z,11.25
2018-03-17T15:31:26.525Z,10.65
2018-03-17T15:33:54.030Z,11.07
2018-03-17T15:36:21.485Z,9.43
2018-03-17T15:38:49.030Z,9.43
2018-03-17T15:41:16.531Z,9.95
2018-03-17T15:43:44.003Z,11.95
2018-03-17T15:46:11.514Z,11.70
2018-03-17T15:48:39.780Z,10.50
2018-03-17T15:51:07.243Z,11.70
2018-03-17T15:53:34.703Z,12.32
2018-03-17T15:56:02.152Z,11.25
2018-03-17T15:58:29.706Z,11.68
2018-03-17T16:00:57.179Z,11.73
2018-03-17T16:03:24.716Z,10.90
2018-03-17T16:05:52.929Z,9.57
2018-03-17T16:08:20.388Z,11.70
2018-03-17T16:10:47.857Z,13.02
2018-03-17T16:13:15.453Z,12.02
2018-03-17T16:15:42.930Z,10.55
2018-03-17T16:18:10.400Z,11.73
2018-03-17T16:20:37.864Z,11.40
2018-03-17T16:23:05.313Z,10.80
2018-03-17T16:25:32.820Z,10.18
2018-03-17T16:28:01.106Z,9.38
2018-03-17T16:30:29.386Z,11.82
2018-03-17T16:32:57.601Z,13.07
2018-03-17T16:35:25.073Z,12.40
2018-03-17T16:37:52.569Z,8.75
2018-03-17T16:40:20.767Z,12.20
2018-03-17T16:42:48.236Z,9.95
2018-03-17T16:45:15.816Z,13.23
2018-03-17T16:47:43.319Z,11.38
2018-03-17T16:50:10.791Z,11.23
2018-03-17T16:52:38.245Z,10.13
2018-03-17T16:55:05.764Z,12.27
2018-03-17T16:57:33.283Z,12.48
2018-03-17T17:00:00.814Z,11.88
2018-03-17T17:02:28.303Z,11.75
2018-03-17T17:04:55.782Z,10.98
2018-03-17T17:07:23.310Z,13.00
2018-03-17T17:09:50.952Z,9.40
2018-03-17T17:12:18.447Z,12.00
2018-03-17T17:14:45.994Z,10.40
2018-03-17T17:17:13.461Z,12.50
2018-03-17T17:19:40.911Z,14.38
2018-03-17T17:22:08.379Z,9.90
2018-03-17T17:24:35.840Z,11.05
2018-03-17T17:27:03.450Z,11.02
2018-03-17T17:29:30.950Z,10.50
2018-03-17T17:31:58.398Z,14.65
2018-03-17T17:34:25.865Z,10.43
2018-03-17T17:36:53.363Z,10.05
2018-03-17T17:39:20.858Z,11.25
2018-03-17T17:41:48.328Z,10.77
2018-03-17T17:44:15.787Z,9.13
2018-03-17T17:46:43.262Z,10.65
2018-03-17T17:49:10.781Z,10.88
2018-03-17T17:51:38.267Z,12.98
2018-03-17T17:54:05.735Z,8.30
2018-03-17T17:56:33.527Z,10.60
2018-03-17T17:59:01.776Z,10.10
2018-03-17T18:01:29.241Z,16.27
2018-03-17T18:03:57.476Z,13.93
2018-03-17T18:06:24.961Z,10.35
2018-03-17T18:08:52.416Z,10.90
2018-03-17T18:11:19.878Z,10.60
2018-03-17T18:13:48.115Z,13.45
2018-03-17T18:16:15.728Z,9.75
2018-03-17T18:18:43.209Z,9.50
2018-03-17T18:21:10.735Z,12.32
2018-03-17T18:23:39.585Z,12.55
2018-03-17T18:26:07.052Z,11.50
2018-03-17T18:28:34.532Z,10.93
2018-03-17T18:31:02.026Z,10.25
2018-03-17T18:33:29.479Z,10.70
2018-03-17T18:35:56.963Z,11.48
2018-03-17T18:38:24.438Z,11.50
2018-03-17T18:40:52.705Z,14.20
2018-03-17T18:43:20.177Z,12.60
2018-03-17T18:45:47.700Z,9.65
2018-03-17T18:48:15.154Z,11.05
2018-03-17T18:50:42.600Z,9.00
2018-03-17T18:53:10.090Z,10.82
2018-03-17T18:55:37.572Z,10.90
2018-03-17T18:58:05.799Z,9.70
2018-03-17T19:00:33.307Z,13.07
2018-03-17T19:03:01.560Z,10.15
2018-03-17T19:05:29.033Z,10.20
2018-03-17T19:07:57.253Z,12.30
2018-03-17T19:10:24.746Z,13.23
2018-03-17T19:12:52.240Z,12.70
2018-03-17T19:15:19.710Z,10.07
2018-03-17T19:17:47.176Z,15.15
2018-03-17T19:20:14.639Z,9.48
2018-03-17T19:22:42.112Z,10.43
2018-03-17T19:25:09.784Z,12.85
2018-03-17T19:27:37.654Z,10.43
2018-03-17T19:30:05.178Z,11.93
2018-03-17T19:32:32.663Z,10.80
2018-03-17T19:35:00.097Z,12.02
2018-03-17T19:37:27.605Z,11.70
2018-03-17T19:39:55.840Z,12.27
2018-03-17T19:42:23.903Z,10.43
2018-03-17T19:44:51.336Z,12.73
2018-03-17T19:47:18.832Z,10.40
2018-03-17T19:49:46.268Z,11.38
2018-03-17T19:52:13.844Z,12.77
2018-03-17T19:54:41.270Z,12.20
2018-03-17T19:57:08.742Z,11.12
2018-03-17T19:59:36.235Z,10.15
2018-03-17T20:02:05.212Z,11.25
2018-03-17T20:04:32.681Z,12.23
2018-03-17T20:07:00.155Z,11.85
2018-03-17T20:09:27.675Z,9.90
2018-03-17T20:11:55.143Z,12.00
2018-03-17T20:14:22.664Z,15.90
2018-03-17T20:16:50.117Z,16.30
2018-03-17T20:19:17.621Z,11.48
2018-03-17T20:21:45.885Z,13.65
2018-03-17T20:24:13.373Z,12.55
2018-03-17T20:26:41.640Z,12.43
2018-03-17T20:29:09.837Z,12.50
2018-03-17T20:31:37.370Z,12.55
2018-03-17T20:34:04.847Z,12.18
2018-03-17T20:36:32.327Z,12.98
2018-03-17T20:38:59.892Z,13.73
2018-03-17T20:41:27.336Z,12.32
2018-03-17T20:43:54.797Z,12.70
2018-03-17T20:46:22.269Z,12.63
2018-03-17T20:48:49.809Z,15.65
2018-03-17T20:51:17.401Z,12.18
2018-03-17T20:53:44.952Z,13.45
2018-03-17T20:56:12.387Z,10.43
2018-03-17T20:58:39.941Z,13.18
2018-03-17T21:01:07.562Z,10.82
2018-03-17T21:03:35.220Z,13.18
2018-03-17T21:06:02.731Z,12.27
2018-03-17T21:08:30.191Z,16.05
2018-03-17T21:10:57.706Z,11.48
2018-03-17T21:13:25.161Z,16.27
2018-03-17T21:15:53.372Z,17.20
2018-03-17T21:18:20.897Z,12.15
2018-03-17T21:20:48.396Z,11.00
2018-03-17T21:23:15.849Z,14.90
2018-03-17T21:25:43.505Z,14.38
2018-03-17T21:28:11.012Z,15.90
2018-03-17T21:30:39.287Z,12.70
2018-03-17T21:33:06.759Z,14.60
2018-03-17T21:35:34.215Z,13.82
2018-03-17T21:38:01.689Z,13.07
2018-03-17T21:40:29.152Z,15.43
2018-03-17T21:42:56.625Z,14.85
2018-03-17T21:45:24.092Z,12.90
2018-03-17T21:47:51.598Z,15.15
2018-03-17T21:50:19.127Z,11.30
2018-03-17T21:52:47.406Z,14.20
2018-03-17T21:55:15.656Z,15.20
2018-03-17T21:57:43.160Z,13.02
2018-03-17T22:00:10.632Z,13.13
2018-03-17T22:02:38.083Z,13.90
2018-03-17T22:05:05.588Z,14.32
2018-03-17T22:07:33.368Z,12.77
2018-03-17T22:10:00.823Z,12.40
2018-03-17T22:12:29.040Z,13.88
2018-03-17T22:14:56.503Z,18.33
2018-03-17T22:17:24.040Z,14.13
2018-03-17T22:19:51.674Z,14.77
2018-03-17T22:22:19.129Z,12.50
2018-03-17T22:24:47.381Z,14.25
2018-03-17T22:27:14.831Z,13.52
2018-03-17T22:29:42.314Z,12.68
2018-03-17T22:32:10.516Z,10.73
2018-03-17T22:34:38.041Z,16.75
2018-03-17T22:37:05.496Z,13.05
2018-03-17T22:39:33.727Z,16.10
2018-03-17T22:42:01.203Z,18.33
2018-03-17T22:44:28.677Z,17.40
2018-03-17T22:46:56.133Z,18.77
2018-03-17T22:49:23.587Z,11.43
2018-03-17T22:51:51.059Z,12.55
2018-03-17T22:54:19.267Z,12.73
2018-03-17T22:56:46.760Z,15.35
2018-03-17T22:59:14.245Z,14.80
2018-03-17T23:01:41.735Z,10.07
2018-03-17T23:04:09.233Z,12.90
2018-03-17T23:06:36.698Z,13.10
2018-03-17T23:09:04.200Z,15.32
2018-03-17T23:11:31.664Z,14.87
2018-03-17T23:13:59.152Z,15.20
2018-03-17T23:16:27.689Z,14.50
2018-03-17T23:18:55.177Z,17.00
2018-03-17T23:21:22.636Z,17.55
2018-03-17T23:23:50.110Z,15.98
2018-03-17T23:26:17.580Z,16.50
2018-03-17T23:28:45.209Z,20.62
2018-03-17T23:31:12.832Z,19.90
2018-03-17T23:33:40.402Z,21.25
2018-03-17T23:36:07.839Z,17.77
2018-03-17T23:38:35.513Z,16.30
2018-03-17T23:41:04.344Z,16.33
2018-03-17T23:43:31.805Z,25.67
2018-03-17T23:45:59.267Z,19.00
2018-03-17T23:48:26.712Z,19.45
2018-03-17T23:50:54.409Z,18.48
2018-03-17T23:53:22.633Z,17.20
2018-03-17T23:55:50.198Z,18.48
2018-03-17T23:58:17.661Z,18.12
